createdAt,value
2018-09-17T00:00:40.788Z,17.28
2018-09-17T00:01:40.795Z,17.28
2018-09-17T00:02:40.703Z,17.25
2018-09-17T00:03:40.903Z,17.27
2018-09-17T00:04:40.621Z,17.26
2018-09-17T00:05:40.687Z,17.24
2018-09-17T00:06:40.662Z,17.23
2018-09-17T00:07:40.622Z,17.23
2018-09-17T00:08:40.958Z,17.22
2018-09-17T00:09:40.718Z,17.2
2018-09-17T00:10:40.774Z,17.18
2018-09-17T00:11:40.737Z,17.17
2018-09-17T00:12:40.640Z,17.11
2018-09-17T00:13:40.681Z,17.11
2018-09-17T00:14:40.680Z,17.08
2018-09-17T00:15:40.628Z,17.04
2018-09-17T00:16:40.631Z,16.94
2018-09-17T00:17:40.649Z,16.9
2018-09-17T00:18:40.881Z,16.85
2018-09-17T00:19:40.767Z,16.85
2018-09-17T00:20:41.000Z,16.83
2018-09-17T00:21:40.689Z,16.84
2018-09-17T00:22:40.607Z,16.78
2018-09-17T00:23:40.629Z,16.8
2018-09-17T00:24:40.768Z,16.76
2018-09-17T00:25:40.587Z,16.75
2018-09-17T00:26:40.604Z,16.75
2018-09-17T00:27:41.030Z,16.74
2018-09-17T00:28:40.621Z,16.74
2018-09-17T00:29:40.609Z,16.75
2018-09-17T00:30:40.757Z,16.75
2018-09-17T00:31:40.578Z,16.74
2018-09-17T00:32:40.675Z,16.72
2018-09-17T00:33:40.658Z,16.72
2018-09-17T00:34:41.059Z,16.68
2018-09-17T00:35:40.637Z,16.62
2018-09-17T00:36:40.665Z,16.62
2018-09-17T00:37:40.594Z,16.62
2018-09-17T00:38:40.583Z,16.62
2018-09-17T00:39:40.634Z,16.58
2018-09-17T00:40:40.621Z,16.57
2018-09-17T00:41:40.614Z,16.56
2018-09-17T00:42:40.600Z,16.55
2018-09-17T00:43:40.619Z,16.55
2018-09-17T00:44:40.617Z,16.54
2018-09-17T00:45:40.631Z,16.51
2018-09-17T00:46:40.692Z,16.5
2018-09-17T00:47:40.619Z,16.45
2018-09-17T00:48:40.658Z,16.48
2018-09-17T00:49:40.587Z,16.47
2018-09-17T00:50:40.594Z,16.47
2018-09-17T00:51:40.891Z,16.51
2018-09-17T00:52:40.604Z,16.47
2018-09-17T00:53:40.610Z,16.49
2018-09-17T00:54:40.599Z,16.48
2018-09-17T00:55:40.620Z,16.49
2018-09-17T00:56:40.575Z,16.5
2018-09-17T00:57:41.136Z,16.47
2018-09-17T00:58:40.772Z,16.48
2018-09-17T00:59:40.602Z,16.48
2018-09-17T01:00:40.680Z,16.45
2018-09-17T01:01:40.739Z,16.47
2018-09-17T01:02:40.951Z,16.47
2018-09-17T01:03:40.593Z,16.46
2018-09-17T01:04:40.705Z,16.44
2018-09-17T01:05:40.599Z,16.44
2018-09-17T01:06:40.617Z,16.43
2018-09-17T01:07:40.683Z,16.43
2018-09-17T01:08:41.031Z,16.41
2018-09-17T01:09:40.766Z,16.42
2018-09-17T01:10:40.630Z,16.4
2018-09-17T01:11:41.087Z,16.39
2018-09-17T01:12:40.737Z,16.36
2018-09-17T01:13:40.601Z,16.37
2018-09-17T01:14:41.133Z,16.39
2018-09-17T01:15:41.069Z,16.39
2018-09-17T01:16:40.636Z,16.38
2018-09-17T01:17:40.580Z,16.4
2018-09-17T01:18:40.743Z,16.37
2018-09-17T01:19:40.737Z,16.36
2018-09-17T01:20:40.730Z,16.36
2018-09-17T01:21:40.631Z,16.35
2018-09-17T01:22:40.785Z,16.35
2018-09-17T01:23:40.806Z,16.32
2018-09-17T01:24:40.590Z,16.33
2018-09-17T01:25:41.195Z,16.27
2018-09-17T01:26:40.652Z,16.26
2018-09-17T01:27:40.640Z,16.24
2018-09-17T01:28:40.647Z,16.26
2018-09-17T01:29:40.790Z,16.23
2018-09-17T01:30:41.076Z,16.22
2018-09-17T01:31:40.863Z,16.21
2018-09-17T01:32:40.658Z,16.2
2018-09-17T01:33:40.659Z,16.18
2018-09-17T01:34:40.598Z,16.17
2018-09-17T01:35:40.604Z,16.18
2018-09-17T01:36:40.682Z,16.17
2018-09-17T01:37:40.592Z,16.17
2018-09-17T01:38:40.607Z,16.16
2018-09-17T01:39:40.655Z,16.16
2018-09-17T01:40:40.569Z,16.14
2018-09-17T01:41:40.761Z,16.11
2018-09-17T01:42:40.715Z,16.14
2018-09-17T01:43:40.653Z,16.12
2018-09-17T01:44:40.661Z,16.11
2018-09-17T01:45:40.636Z,16.08
2018-09-17T01:46:40.657Z,16.05
2018-09-17T01:47:40.643Z,16.03
2018-09-17T01:48:40.983Z,16.01
2018-09-17T01:49:40.999Z,16.02
2018-09-17T01:50:40.582Z,15.99
2018-09-17T01:51:40.581Z,15.98
2018-09-17T01:52:40.604Z,15.98
2018-09-17T01:53:40.673Z,15.98
2018-09-17T01:54:40.629Z,15.93
2018-09-17T01:55:40.633Z,15.92
2018-09-17T01:56:41.224Z,15.91
2018-09-17T01:57:40.808Z,15.88
2018-09-17T01:58:40.652Z,15.89
2018-09-17T01:59:40.716Z,15.86
2018-09-17T02:00:40.711Z,15.86
2018-09-17T02:01:40.585Z,15.86
2018-09-17T02:02:40.653Z,15.86
2018-09-17T02:03:40.968Z,15.85
2018-09-17T02:04:40.590Z,15.84
2018-09-17T02:05:40.900Z,15.83
2018-09-17T02:06:40.572Z,15.81
2018-09-17T02:07:40.607Z,15.81
2018-09-17T02:08:41.676Z,15.77
2018-09-17T02:09:40.722Z,15.76
2018-09-17T02:10:40.805Z,15.74
2018-09-17T02:11:40.686Z,15.74
2018-09-17T02:12:40.549Z,15.74
2018-09-17T02:13:40.548Z,15.73
2018-09-17T02:14:40.554Z,15.71
2018-09-17T02:15:40.727Z,15.69
2018-09-17T02:16:40.700Z,15.67
2018-09-17T02:17:40.575Z,15.69
2018-09-17T02:18:40.555Z,15.65
2018-09-17T02:19:40.584Z,15.64
2018-09-17T02:20:40.638Z,15.6
2018-09-17T02:21:40.701Z,15.6
2018-09-17T02:22:40.610Z,15.59
2018-09-17T02:23:40.660Z,15.61
2018-09-17T02:24:40.582Z,15.59
2018-09-17T02:25:40.763Z,15.56
2018-09-17T02:26:40.634Z,15.56
2018-09-17T02:27:40.636Z,15.58
2018-09-17T02:28:40.647Z,15.55
2018-09-17T02:29:41.037Z,15.55
2018-09-17T02:30:40.559Z,15.55
2018-09-17T02:31:40.735Z,15.56
2018-09-17T02:32:40.913Z,15.57
2018-09-17T02:33:40.588Z,15.54
2018-09-17T02:34:40.551Z,15.53
2018-09-17T02:35:40.553Z,15.53
2018-09-17T02:36:40.563Z,15.54
2018-09-17T02:37:40.542Z,15.52
2018-09-17T02:38:40.582Z,15.51
2018-09-17T02:39:40.673Z,15.52
2018-09-17T02:40:40.539Z,15.5
2018-09-17T02:41:40.578Z,15.5
2018-09-17T02:42:40.677Z,15.49
2018-09-17T02:43:41.308Z,15.5
2018-09-17T02:44:40.806Z,15.52
2018-09-17T02:45:40.638Z,15.49
2018-09-17T02:46:40.564Z,15.48
2018-09-17T02:47:40.896Z,15.5
2018-09-17T02:48:40.592Z,15.47
2018-09-17T02:49:40.590Z,15.47
2018-09-17T02:50:40.998Z,15.47
2018-09-17T02:51:40.644Z,15.48
2018-09-17T02:52:40.576Z,15.46
2018-09-17T02:53:41.964Z,15.47
2018-09-17T02:54:40.729Z,15.46
2018-09-17T02:55:40.569Z,15.48
2018-09-17T02:56:40.631Z,15.47
2018-09-17T02:57:40.890Z,15.46
2018-09-17T02:58:40.590Z,15.48
2018-09-17T02:59:40.649Z,15.47
2018-09-17T03:00:40.731Z,15.47
2018-09-17T03:01:41.230Z,15.47
2018-09-17T03:02:40.768Z,15.47
2018-09-17T03:03:40.613Z,15.46
2018-09-17T03:04:40.556Z,15.47
2018-09-17T03:05:40.728Z,15.44
2018-09-17T03:06:40.695Z,15.46
2018-09-17T03:07:40.755Z,15.45
2018-09-17T03:08:40.616Z,15.46
2018-09-17T03:09:40.642Z,15.45
2018-09-17T03:10:40.673Z,15.42
2018-09-17T03:11:40.551Z,15.41
2018-09-17T03:12:40.591Z,15.39
2018-09-17T03:13:40.595Z,15.38
2018-09-17T03:14:40.676Z,15.39
2018-09-17T03:15:40.661Z,15.37
2018-09-17T03:16:40.574Z,15.37
2018-09-17T03:17:40.775Z,15.37
2018-09-17T03:18:40.552Z,15.37
2018-09-17T03:19:40.586Z,15.38
2018-09-17T03:20:40.668Z,15.36
2018-09-17T03:21:41.625Z,15.39
2018-09-17T03:22:40.574Z,15.39
2018-09-17T03:23:40.564Z,15.37
2018-09-17T03:24:40.699Z,15.38
2018-09-17T03:25:40.596Z,15.36
2018-09-17T03:26:40.573Z,15.35
2018-09-17T03:27:40.582Z,15.38
2018-09-17T03:28:40.578Z,15.36
2018-09-17T03:29:40.557Z,15.38
2018-09-17T03:30:40.564Z,15.37
2018-09-17T03:31:40.548Z,15.35
2018-09-17T03:32:40.606Z,15.36
2018-09-17T03:33:40.556Z,15.36
2018-09-17T03:34:40.837Z,15.36
2018-09-17T03:35:40.846Z,15.35
2018-09-17T03:36:40.575Z,15.35
2018-09-17T03:37:40.557Z,15.36
2018-09-17T03:38:40.616Z,15.35
2018-09-17T03:39:40.592Z,15.35
2018-09-17T03:40:40.560Z,15.33
2018-09-17T03:41:40.594Z,15.36
2018-09-17T03:42:40.582Z,15.36
2018-09-17T03:43:41.103Z,15.34
2018-09-17T03:44:41.212Z,15.33
2018-09-17T03:45:40.569Z,15.32
2018-09-17T03:46:42.045Z,15.32
2018-09-17T03:47:41.202Z,15.33
2018-09-17T03:48:40.601Z,15.31
2018-09-17T03:49:40.666Z,15.31
2018-09-17T03:50:40.562Z,15.31
2018-09-17T03:51:40.875Z,15.29
2018-09-17T03:52:40.551Z,15.29
2018-09-17T03:53:40.593Z,15.27
2018-09-17T03:54:41.290Z,15.28
2018-09-17T03:55:40.786Z,15.27
2018-09-17T03:56:40.654Z,15.24
2018-09-17T03:57:40.572Z,15.23
2018-09-17T03:58:40.579Z,15.23
2018-09-17T03:59:40.585Z,15.23
2018-09-17T04:00:40.593Z,15.23
2018-09-17T04:01:40.651Z,15.24
2018-09-17T04:02:40.609Z,15.22
2018-09-17T04:03:40.580Z,15.2
2018-09-17T04:04:40.621Z,15.22
2018-09-17T04:05:40.641Z,15.22
2018-09-17T04:06:40.556Z,15.19
2018-09-17T04:07:40.570Z,15.22
2018-09-17T04:08:40.608Z,15.17
2018-09-17T04:09:40.720Z,15.17
2018-09-17T04:10:40.798Z,15.17
2018-09-17T04:11:40.626Z,15.16
2018-09-17T04:12:40.570Z,15.14
2018-09-17T04:13:40.802Z,15.12
2018-09-17T04:14:40.618Z,15.1
2018-09-17T04:15:40.558Z,15.1
2018-09-17T04:16:41.071Z,15.1
2018-09-17T04:17:40.569Z,15.1
2018-09-17T04:18:40.627Z,15.08
2018-09-17T04:19:40.583Z,15.07
2018-09-17T04:20:41.010Z,15.04
2018-09-17T04:21:40.576Z,15.04
2018-09-17T04:22:40.564Z,15.03
2018-09-17T04:23:40.740Z,15.01
2018-09-17T04:24:40.710Z,15.03
2018-09-17T04:25:40.614Z,15.03
2018-09-17T04:26:40.632Z,15.04
2018-09-17T04:27:40.620Z,15.03
2018-09-17T04:28:40.565Z,15.02
2018-09-17T04:29:40.597Z,15
2018-09-17T04:30:40.554Z,15
2018-09-17T04:31:42.221Z,15
2018-09-17T04:32:40.572Z,14.99
2018-09-17T04:33:40.599Z,14.98
2018-09-17T04:34:40.938Z,14.99
2018-09-17T04:35:40.619Z,14.93
2018-09-17T04:36:41.128Z,14.94
2018-09-17T04:37:41.233Z,14.91
2018-09-17T04:38:40.627Z,14.9
2018-09-17T04:39:41.548Z,14.89
2018-09-17T04:40:40.807Z,14.89
2018-09-17T04:41:40.857Z,14.87
2018-09-17T04:42:40.669Z,14.83
2018-09-17T04:43:40.784Z,14.83
2018-09-17T04:44:40.777Z,14.83
2018-09-17T04:45:40.983Z,14.8
2018-09-17T04:46:40.661Z,14.79
2018-09-17T04:47:40.567Z,14.77
2018-09-17T04:48:40.612Z,14.76
2018-09-17T04:49:40.638Z,14.75
2018-09-17T04:50:40.728Z,14.72
2018-09-17T04:51:40.568Z,14.71
2018-09-17T04:52:40.591Z,14.71
2018-09-17T04:53:40.580Z,14.7
2018-09-17T04:54:40.592Z,14.68
2018-09-17T04:55:40.785Z,14.66
2018-09-17T04:56:40.597Z,14.64
2018-09-17T04:57:40.621Z,14.63
2018-09-17T04:58:40.602Z,14.61
2018-09-17T04:59:40.613Z,14.62
2018-09-17T05:00:40.695Z,14.59
2018-09-17T05:01:40.656Z,14.59
2018-09-17T05:02:40.596Z,14.58
2018-09-17T05:03:40.613Z,14.55
2018-09-17T05:04:40.673Z,14.56
2018-09-17T05:05:40.613Z,14.56
2018-09-17T05:06:40.663Z,14.54
2018-09-17T05:07:41.439Z,14.54
2018-09-17T05:08:40.737Z,14.52
2018-09-17T05:09:41.023Z,14.5
2018-09-17T05:10:40.698Z,14.48
2018-09-17T05:11:40.769Z,14.49
2018-09-17T05:12:40.609Z,14.47
2018-09-17T05:13:40.716Z,14.47
2018-09-17T05:14:41.070Z,14.46
2018-09-17T05:15:40.733Z,14.47
2018-09-17T05:16:40.771Z,14.47
2018-09-17T05:17:40.724Z,14.47
2018-09-17T05:18:40.980Z,14.47
2018-09-17T05:19:40.637Z,14.46
2018-09-17T05:20:41.311Z,14.46
2018-09-17T05:21:40.845Z,14.47
2018-09-17T05:22:40.648Z,14.47
2018-09-17T05:23:40.828Z,14.47
2018-09-17T05:24:40.693Z,14.49
2018-09-17T05:25:40.666Z,14.47
2018-09-17T05:26:41.039Z,14.5
2018-09-17T05:27:40.847Z,14.5
2018-09-17T05:28:40.786Z,14.52
2018-09-17T05:29:40.779Z,14.49
2018-09-17T05:30:40.980Z,14.49
2018-09-17T05:31:40.756Z,14.51
2018-09-17T05:32:40.605Z,14.51
2018-09-17T05:33:40.789Z,14.52
2018-09-17T05:34:40.945Z,14.52
2018-09-17T05:35:40.768Z,14.53
2018-09-17T05:36:40.764Z,14.53
2018-09-17T05:37:40.689Z,14.53
2018-09-17T05:38:40.608Z,14.52
2018-09-17T05:39:40.631Z,14.51
2018-09-17T05:40:40.757Z,14.51
2018-09-17T05:41:40.629Z,14.51
2018-09-17T05:42:41.619Z,14.48
2018-09-17T05:43:40.848Z,14.51
2018-09-17T05:44:40.761Z,14.5
2018-09-17T05:45:40.641Z,14.51
2018-09-17T05:46:40.614Z,14.48
2018-09-17T05:47:40.643Z,14.48
2018-09-17T05:48:40.808Z,14.47
2018-09-17T05:49:41.106Z,14.49
2018-09-17T05:50:40.755Z,14.47
2018-09-17T05:51:40.672Z,14.48
2018-09-17T05:52:40.775Z,14.49
2018-09-17T05:53:41.103Z,14.52
2018-09-17T05:54:40.771Z,14.53
2018-09-17T05:55:40.774Z,14.55
2018-09-17T05:56:40.986Z,14.58
2018-09-17T05:57:40.641Z,14.58
2018-09-17T05:58:40.698Z,14.62
2018-09-17T05:59:41.845Z,14.6
2018-09-17T06:00:41.020Z,14.6
2018-09-17T06:01:40.919Z,14.64
2018-09-17T06:02:40.780Z,14.61
2018-09-17T06:03:40.801Z,14.63
2018-09-17T06:04:40.618Z,14.65
2018-09-17T06:05:41.584Z,14.66
2018-09-17T06:06:40.803Z,14.7
2018-09-17T06:07:40.598Z,14.68
2018-09-17T06:08:40.668Z,14.7
2018-09-17T06:09:41.276Z,14.72
2018-09-17T06:10:40.630Z,14.73
2018-09-17T06:11:41.007Z,14.75
2018-09-17T06:12:40.607Z,14.74
2018-09-17T06:13:40.638Z,14.76
2018-09-17T06:14:41.820Z,14.73
2018-09-17T06:15:40.636Z,14.76
2018-09-17T06:16:40.633Z,14.76
2018-09-17T06:17:40.627Z,14.73
2018-09-17T06:18:40.716Z,14.75
2018-09-17T06:19:40.760Z,14.75
2018-09-17T06:20:40.619Z,14.77
2018-09-17T06:21:40.641Z,14.77
2018-09-17T06:22:40.957Z,14.78
2018-09-17T06:23:41.067Z,14.78
2018-09-17T06:24:40.725Z,14.79
2018-09-17T06:25:40.840Z,14.81
2018-09-17T06:26:41.579Z,14.81
2018-09-17T06:27:40.718Z,14.84
2018-09-17T06:28:41.038Z,14.88
2018-09-17T06:29:40.777Z,14.9
2018-09-17T06:30:40.830Z,14.91
2018-09-17T06:31:40.822Z,14.93
2018-09-17T06:32:40.623Z,14.97
2018-09-17T06:33:40.804Z,14.99
2018-09-17T06:34:40.729Z,15.02
2018-09-17T06:35:40.639Z,15.03
2018-09-17T06:36:40.663Z,15.05
2018-09-17T06:37:41.318Z,15.08
2018-09-17T06:38:40.687Z,15.09
2018-09-17T06:39:40.766Z,15.13
2018-09-17T06:40:40.680Z,15.14
2018-09-17T06:41:41.413Z,15.15
2018-09-17T06:42:40.963Z,15.15
2018-09-17T06:43:40.914Z,15.16
2018-09-17T06:44:40.728Z,15.2
2018-09-17T06:45:40.871Z,15.22
2018-09-17T06:46:40.643Z,15.23
2018-09-17T06:47:40.657Z,15.29
2018-09-17T06:48:40.816Z,15.31
2018-09-17T06:49:40.814Z,15.33
2018-09-17T06:50:40.851Z,15.37
2018-09-17T06:51:40.837Z,15.39
2018-09-17T06:52:40.759Z,15.4
2018-09-17T06:53:41.186Z,15.4
2018-09-17T06:54:41.589Z,15.45
2018-09-17T06:55:40.662Z,15.45
2018-09-17T06:56:41.061Z,15.47
2018-09-17T06:57:40.700Z,15.51
2018-09-17T06:58:40.828Z,15.53
2018-09-17T06:59:40.693Z,15.56
2018-09-17T07:00:40.882Z,15.59
2018-09-17T07:01:40.644Z,15.64
2018-09-17T07:02:40.661Z,15.66
2018-09-17T07:03:40.872Z,15.7
2018-09-17T07:04:40.674Z,15.72
2018-09-17T07:05:40.756Z,15.77
2018-09-17T07:06:40.971Z,15.79
2018-09-17T07:07:40.807Z,15.83
2018-09-17T07:08:40.776Z,15.87
2018-09-17T07:09:40.678Z,15.9
2018-09-17T07:10:40.719Z,15.94
2018-09-17T07:11:40.669Z,15.97
2018-09-17T07:12:40.701Z,16.02
2018-09-17T07:13:41.195Z,16.03
2018-09-17T07:14:40.716Z,16.07
2018-09-17T07:15:41.216Z,16.11
2018-09-17T07:16:41.260Z,16.13
2018-09-17T07:17:41.599Z,16.15
2018-09-17T07:18:40.827Z,16.18
2018-09-17T07:19:40.637Z,16.2
2018-09-17T07:20:40.642Z,16.22
2018-09-17T07:21:40.647Z,16.27
2018-09-17T07:22:40.847Z,16.32
2018-09-17T07:23:40.723Z,16.36
2018-09-17T07:24:40.640Z,16.38
2018-09-17T07:25:40.690Z,16.43
2018-09-17T07:26:40.677Z,16.45
2018-09-17T07:27:40.687Z,16.5
2018-09-17T07:28:40.662Z,16.55
2018-09-17T07:29:40.642Z,16.58
2018-09-17T07:30:40.675Z,16.62
2018-09-17T07:31:40.672Z,16.65
2018-09-17T07:32:40.988Z,16.68
2018-09-17T07:33:40.679Z,16.71
2018-09-17T07:34:40.767Z,16.76
2018-09-17T07:35:40.686Z,16.8
2018-09-17T07:36:41.547Z,16.81
2018-09-17T07:37:40.957Z,16.86
2018-09-17T07:38:40.727Z,16.9
2018-09-17T07:39:40.713Z,16.94
2018-09-17T07:40:40.939Z,16.96
2018-09-17T07:41:40.957Z,17.02
2018-09-17T07:42:40.806Z,17.06
2018-09-17T07:43:40.668Z,17.1
2018-09-17T07:44:40.757Z,17.13
2018-09-17T07:45:40.874Z,17.19
2018-09-17T07:46:40.663Z,17.24
2018-09-17T07:47:40.823Z,17.28
2018-09-17T07:48:40.858Z,17.3
2018-09-17T07:49:40.793Z,17.34
2018-09-17T07:50:40.678Z,17.37
2018-09-17T07:51:40.698Z,17.41
2018-09-17T07:52:40.804Z,17.44
2018-09-17T07:53:41.097Z,17.47
2018-09-17T07:54:40.709Z,17.49
2018-09-17T07:55:40.774Z,17.51
2018-09-17T07:56:40.744Z,17.55
2018-09-17T07:57:40.860Z,17.59
2018-09-17T07:58:40.890Z,17.65
2018-09-17T07:59:40.846Z,17.69
2018-09-17T08:00:40.831Z,17.75
2018-09-17T08:01:40.804Z,17.77
2018-09-17T08:02:40.695Z,17.8
2018-09-17T08:03:40.729Z,17.86
2018-09-17T08:04:40.795Z,17.9
2018-09-17T08:05:41.481Z,17.93
2018-09-17T08:06:40.927Z,17.98
2018-09-17T08:07:40.922Z,17.98
2018-09-17T08:08:40.941Z,18.02
2018-09-17T08:09:40.803Z,18.05
2018-09-17T08:10:40.721Z,18.07
2018-09-17T08:11:40.719Z,18.12
2018-09-17T08:12:40.721Z,18.12
2018-09-17T08:13:40.852Z,18.17
2018-09-17T08:14:40.674Z,18.21
2018-09-17T08:15:40.681Z,18.23
2018-09-17T08:16:40.689Z,18.26
2018-09-17T08:17:41.096Z,18.31
2018-09-17T08:18:40.693Z,18.33
2018-09-17T08:19:41.416Z,18.37
2018-09-17T08:20:40.887Z,18.41
2018-09-17T08:21:41.321Z,18.45
2018-09-17T08:22:41.340Z,18.48
2018-09-17T08:23:40.930Z,18.5
2018-09-17T08:24:40.818Z,18.54
2018-09-17T08:25:40.733Z,18.55
2018-09-17T08:26:40.714Z,18.56
2018-09-17T08:27:40.864Z,18.6
2018-09-17T08:28:40.755Z,18.61
2018-09-17T08:29:40.703Z,18.66
2018-09-17T08:30:40.712Z,18.69
2018-09-17T08:31:40.790Z,18.74
2018-09-17T08:32:40.709Z,18.79
2018-09-17T08:33:40.990Z,18.78
2018-09-17T08:34:40.676Z,18.75
2018-09-17T08:35:40.774Z,18.76
2018-09-17T08:36:40.710Z,18.77
2018-09-17T08:37:40.718Z,18.85
2018-09-17T08:38:40.993Z,18.88
2018-09-17T08:39:40.815Z,18.93
2018-09-17T08:40:40.729Z,18.99
2018-09-17T08:41:40.709Z,19
2018-09-17T08:42:40.723Z,19.04
2018-09-17T08:43:40.691Z,19.07
2018-09-17T08:44:40.678Z,19.09
2018-09-17T08:45:41.249Z,19.08
2018-09-17T08:46:40.832Z,19.07
2018-09-17T08:47:40.758Z,19.09
2018-09-17T08:48:40.688Z,19.09
2018-09-17T08:49:40.699Z,19.14
2018-09-17T08:50:40.819Z,19.18
2018-09-17T08:51:40.697Z,19.21
2018-09-17T08:52:41.242Z,19.24
2018-09-17T08:53:40.729Z,19.28
2018-09-17T08:54:40.711Z,19.31
2018-09-17T08:55:40.774Z,19.33
2018-09-17T08:56:40.805Z,19.39
2018-09-17T08:57:40.702Z,19.44
2018-09-17T08:58:40.721Z,19.47
2018-09-17T08:59:40.675Z,19.49
2018-09-17T09:00:40.737Z,19.46
2018-09-17T09:01:40.883Z,19.48
2018-09-17T09:02:40.746Z,19.47
2018-09-17T09:03:40.808Z,19.52
2018-09-17T09:04:40.935Z,19.58
2018-09-17T09:05:40.728Z,19.63
2018-09-17T09:06:40.814Z,19.7
2018-09-17T09:07:40.907Z,19.71
2018-09-17T09:08:40.747Z,19.72
2018-09-17T09:09:41.224Z,19.81
2018-09-17T09:10:40.966Z,19.83
2018-09-17T09:11:40.709Z,19.89
2018-09-17T09:12:40.872Z,19.92
2018-09-17T09:13:40.756Z,19.99
2018-09-17T09:14:40.925Z,20.04
2018-09-17T09:15:40.779Z,20.01
2018-09-17T09:16:40.735Z,20.06
2018-09-17T09:17:40.725Z,20.1
2018-09-17T09:18:40.705Z,20.13
2018-09-17T09:19:41.452Z,20.18
2018-09-17T09:20:40.761Z,20.25
2018-09-17T09:21:40.749Z,20.26
2018-09-17T09:22:40.743Z,20.39
2018-09-17T09:23:40.884Z,20.43
2018-09-17T09:24:40.755Z,20.51
2018-09-17T09:25:40.710Z,20.55
2018-09-17T09:26:40.914Z,20.62
2018-09-17T09:27:41.016Z,20.67
2018-09-17T09:28:40.720Z,20.69
2018-09-17T09:29:41.157Z,20.71
2018-09-17T09:30:41.167Z,20.72
2018-09-17T09:31:40.793Z,20.74
2018-09-17T09:32:40.786Z,20.75
2018-09-17T09:33:40.745Z,20.81
2018-09-17T09:34:40.870Z,20.85
2018-09-17T09:35:40.785Z,20.88
2018-09-17T09:36:40.857Z,20.91
2018-09-17T09:37:40.761Z,20.95
2018-09-17T09:38:40.730Z,21.02
2018-09-17T09:39:40.760Z,21.08
2018-09-17T09:40:40.802Z,21.08
2018-09-17T09:41:40.864Z,21.14
2018-09-17T09:42:40.708Z,21.2
2018-09-17T09:43:40.773Z,21.29
2018-09-17T09:44:40.771Z,21.31
2018-09-17T09:45:40.765Z,21.35
2018-09-17T09:46:40.780Z,21.42
2018-09-17T09:47:40.784Z,21.49
2018-09-17T09:48:40.724Z,21.55
2018-09-17T09:49:40.796Z,21.56
2018-09-17T09:50:40.804Z,21.55
2018-09-17T09:51:41.240Z,21.59
2018-09-17T09:52:41.870Z,21.61
2018-09-17T09:53:40.855Z,21.63
2018-09-17T09:54:40.939Z,21.7
2018-09-17T09:55:40.782Z,21.75
2018-09-17T09:56:41.140Z,21.74
2018-09-17T09:57:41.171Z,21.75
2018-09-17T09:58:40.941Z,21.76
2018-09-17T09:59:41.569Z,21.79
2018-09-17T10:00:40.946Z,21.78
2018-09-17T10:01:40.883Z,21.81
2018-09-17T10:02:40.821Z,21.84
2018-09-17T10:03:40.793Z,21.84
2018-09-17T10:04:40.797Z,21.9
2018-09-17T10:05:40.766Z,21.91
2018-09-17T10:06:40.771Z,22
2018-09-17T10:07:40.781Z,22.01
2018-09-17T10:08:41.039Z,22.02
2018-09-17T10:09:40.807Z,22.05
2018-09-17T10:10:40.789Z,22.11
2018-09-17T10:11:41.677Z,22.15
2018-09-17T10:12:40.998Z,22.18
2018-09-17T10:13:40.952Z,22.24
2018-09-17T10:14:40.801Z,22.28
2018-09-17T10:15:40.804Z,22.3
2018-09-17T10:16:40.770Z,22.35
2018-09-17T10:17:40.773Z,22.4
2018-09-17T10:18:40.795Z,22.44
2018-09-17T10:19:40.783Z,22.45
2018-09-17T10:20:40.863Z,22.47
2018-09-17T10:21:40.779Z,22.52
2018-09-17T10:22:40.917Z,22.55
2018-09-17T10:23:40.812Z,22.57
2018-09-17T10:24:40.846Z,22.59
2018-09-17T10:25:40.787Z,22.59
2018-09-17T10:26:40.893Z,22.63
2018-09-17T10:27:40.882Z,22.66
2018-09-17T10:28:40.790Z,22.72
2018-09-17T10:29:40.880Z,22.79
2018-09-17T10:30:41.199Z,22.8
2018-09-17T10:31:40.945Z,22.81
2018-09-17T10:32:41.100Z,22.82
2018-09-17T10:33:40.782Z,22.81
2018-09-17T10:34:41.052Z,22.83
2018-09-17T10:35:41.103Z,22.89
2018-09-17T10:36:41.606Z,22.92
2018-09-17T10:37:42.738Z,23
2018-09-17T10:38:41.722Z,23.07
2018-09-17T10:39:41.897Z,23.13
2018-09-17T10:40:40.955Z,23.22
2018-09-17T10:41:40.917Z,23.24
2018-09-17T10:42:40.907Z,23.28
2018-09-17T10:43:41.064Z,23.31
2018-09-17T10:44:41.033Z,23.34
2018-09-17T10:45:41.984Z,23.36
2018-09-17T10:46:40.833Z,23.42
2018-09-17T10:47:40.779Z,23.47
2018-09-17T10:48:40.800Z,23.49
2018-09-17T10:49:40.956Z,23.55
2018-09-17T10:50:40.791Z,23.59
2018-09-17T10:51:40.942Z,23.62
2018-09-17T10:52:40.908Z,23.66
2018-09-17T10:53:40.786Z,23.68
2018-09-17T10:54:40.929Z,23.77
2018-09-17T10:55:40.786Z,23.86
2018-09-17T10:56:40.824Z,23.87
2018-09-17T10:57:40.841Z,23.92
2018-09-17T10:58:41.167Z,23.94
2018-09-17T10:59:40.854Z,23.98
2018-09-17T11:00:40.898Z,24.01
2018-09-17T11:01:40.839Z,24.04
2018-09-17T11:02:40.802Z,24.08
2018-09-17T11:03:40.861Z,24.09
2018-09-17T11:04:41.262Z,24.09
2018-09-17T11:05:40.801Z,24.16
2018-09-17T11:06:41.053Z,24.18
2018-09-17T11:07:40.810Z,24.19
2018-09-17T11:08:40.872Z,24.22
2018-09-17T11:09:41.007Z,24.25
2018-09-17T11:10:41.144Z,24.24
2018-09-17T11:11:41.562Z,24.36
2018-09-17T11:12:40.932Z,24.38
2018-09-17T11:13:41.102Z,24.37
2018-09-17T11:14:41.035Z,24.45
2018-09-17T11:15:40.990Z,24.46
2018-09-17T11:16:40.921Z,24.48
2018-09-17T11:17:41.641Z,24.51
2018-09-17T11:18:40.865Z,24.5
2018-09-17T11:19:40.905Z,24.56
2018-09-17T11:20:41.481Z,24.6
2018-09-17T11:21:41.184Z,24.57
2018-09-17T11:22:40.886Z,24.58
2018-09-17T11:23:40.893Z,24.59
2018-09-17T11:24:40.874Z,24.59
2018-09-17T11:25:40.944Z,24.64
2018-09-17T11:26:40.937Z,24.64
2018-09-17T11:27:40.984Z,24.66
2018-09-17T11:28:41.032Z,24.69
2018-09-17T11:29:40.807Z,24.72
2018-09-17T11:30:41.269Z,24.78
2018-09-17T11:31:40.994Z,24.77
2018-09-17T11:32:40.984Z,24.78
2018-09-17T11:33:41.077Z,24.81
2018-09-17T11:34:41.116Z,24.87
2018-09-17T11:35:40.872Z,24.91
2018-09-17T11:36:40.978Z,24.98
2018-09-17T11:37:40.985Z,24.96
2018-09-17T11:38:40.896Z,24.91
2018-09-17T11:39:40.914Z,24.91
2018-09-17T11:40:40.983Z,24.92
2018-09-17T11:41:40.936Z,24.97
2018-09-17T11:42:41.326Z,24.96
2018-09-17T11:43:41.160Z,24.94
2018-09-17T11:44:41.392Z,25.03
2018-09-17T11:45:40.941Z,25.06
2018-09-17T11:46:41.665Z,25.1
2018-09-17T11:47:40.958Z,25.11
2018-09-17T11:48:40.979Z,25.13
2018-09-17T11:49:40.967Z,25.14
2018-09-17T11:50:41.012Z,25.24
2018-09-17T11:51:40.984Z,25.25
2018-09-17T11:52:40.888Z,25.21
2018-09-17T11:53:40.893Z,25.17
2018-09-17T11:54:40.867Z,25.19
2018-09-17T11:55:41.010Z,25.35
2018-09-17T11:56:40.933Z,25.32
2018-09-17T11:57:40.889Z,25.27
2018-09-17T11:58:40.933Z,25.27
2018-09-17T11:59:40.950Z,25.28
2018-09-17T12:00:40.942Z,25.36
2018-09-17T12:01:41.685Z,25.32
2018-09-17T12:02:41.103Z,25.27
2018-09-17T12:03:40.884Z,25.33
2018-09-17T12:04:40.964Z,25.35
2018-09-17T12:05:40.900Z,25.42
2018-09-17T12:06:41.011Z,25.43
2018-09-17T12:07:41.348Z,25.39
2018-09-17T12:08:42.264Z,25.37
2018-09-17T12:09:40.897Z,25.42
2018-09-17T12:10:41.027Z,25.43
2018-09-17T12:11:41.247Z,25.4
2018-09-17T12:12:41.123Z,25.35
2018-09-17T12:13:40.854Z,25.34
2018-09-17T12:14:41.145Z,25.36
2018-09-17T12:15:41.074Z,25.42
2018-09-17T12:16:40.863Z,25.5
2018-09-17T12:17:41.287Z,25.65
2018-09-17T12:18:41.093Z,25.55
2018-09-17T12:19:41.102Z,25.63
2018-09-17T12:20:41.714Z,25.62
2018-09-17T12:21:41.806Z,25.65
2018-09-17T12:22:41.097Z,25.61
2018-09-17T12:23:40.986Z,25.61
2018-09-17T12:24:41.136Z,25.61
2018-09-17T12:25:41.079Z,25.64
2018-09-17T12:26:41.056Z,25.63
2018-09-17T12:27:41.062Z,25.66
2018-09-17T12:28:41.340Z,25.76
2018-09-17T12:29:41.337Z,25.72
2018-09-17T12:30:41.049Z,25.73
2018-09-17T12:31:41.180Z,25.75
2018-09-17T12:32:41.128Z,25.77
2018-09-17T12:33:42.060Z,25.77
2018-09-17T12:34:41.501Z,25.77
2018-09-17T12:35:41.108Z,25.78
2018-09-17T12:36:41.090Z,25.83
2018-09-17T12:37:41.398Z,25.82
2018-09-17T12:38:41.212Z,25.81
2018-09-17T12:39:40.990Z,25.81
2018-09-17T12:40:41.267Z,25.83
2018-09-17T12:41:41.148Z,25.81
2018-09-17T12:42:41.048Z,25.84
2018-09-17T12:43:41.044Z,25.84
2018-09-17T12:44:40.904Z,25.87
2018-09-17T12:45:40.974Z,25.9
2018-09-17T12:46:41.071Z,25.88
2018-09-17T12:47:41.076Z,25.9
2018-09-17T12:48:40.923Z,25.9
2018-09-17T12:49:40.982Z,25.92
2018-09-17T12:50:41.949Z,25.91
2018-09-17T12:51:40.939Z,25.92
2018-09-17T12:52:41.125Z,25.96
2018-09-17T12:53:40.889Z,25.97
2018-09-17T12:54:41.075Z,25.96
2018-09-17T12:55:42.141Z,25.99